Time;durP1;ratioP1;P1;durP2;ratioP2;P2;SDS_P1;SDS_P2;PMS_P1;PMS_P2;Temp;Humidity;BMP_temperature;BMP_pressure;BME280_temperature;BME280_humidity;BME280_pressure;Samples;Min_cycle;Max_cycle;Signal;HPM_P1;HPM_P2
2022/12/29 06:41:38;;;;;;;;;2.25;1.00;;;;;9.85;100.00;100392.03;5883182;23;47959;-68
2022/12/29 06:44:03;;;;;;;;;1.50;0.00;;;;;11.09;100.00;100594.47;4946880;28;49807;-67
2022/12/29 06:46:28;;;;;;;;;1.00;0.00;;;;;10.98;100.00;100589.06;4956469;28;58439;-66
2022/12/29 06:48:53;;;;;;;;;0.75;0.00;;;;;11.14;100.00;100613.84;4949288;28;50335;-67
2022/12/29 06:51:19;;;;;;;;;0.50;0.50;;;;;11.11;100.00;100616.44;4945278;28;55715;-67
2022/12/29 06:53:44;;;;;;;;;2.75;2.00;;;;;11.08;100.00;100613.75;4941162;28;53276;-67
2022/12/29 06:56:09;;;;;;;;;1.00;1.00;;;;;11.09;100.00;100615.50;4947090;28;55828;-67
2022/12/29 06:58:35;;;;;;;;;1.00;1.00;;;;;10.83;100.00;100578.31;4945147;28;69636;-67
2022/12/29 07:01:00;;;;;;;;;2.00;1.00;;;;;11.11;100.00;100626.94;4947547;28;64534;-67
2022/12/29 07:03:25;;;;;;;;;0.00;0.00;;;;;11.13;100.00;100626.09;4942412;28;55025;-67
2022/12/29 07:05:50;;;;;;;;;2.25;1.25;;;;;11.10;100.00;100617.28;4942948;28;50367;-67
2022/12/29 07:08:16;;;;;;;;;0.00;0.00;;;;;11.13;100.00;100627.84;4942113;28;50418;-68
2022/12/29 07:10:41;;;;;;;;;1.00;1.00;;;;;11.09;100.00;100615.50;4946461;28;49889;-67
2022/12/29 07:13:09;;;;;;;;;0.75;0.75;;;;;10.88;100.00;100585.41;4942972;28;50300;-68
2022/12/29 07:15:36;;;;;;;;;0.00;0.00;;;;;11.10;100.00;100620.81;4940462;28;49879;-67
2022/12/29 07:18:02;;;;;;;;;1.25;0.00;;;;;10.95;100.00;100593.38;4938457;28;50591;-68
2022/12/29 07:20:28;;;;;;;;;1.50;0.00;;;;;11.17;100.00;100619.13;4923338;28;49896;-67
2022/12/29 07:22:53;;;;;;;;;2.00;1.00;;;;;10.97;100.00;100608.31;4952272;28;50340;-68
2022/12/29 07:25:19;;;;;;;;;1.75;1.00;;;;;11.12;100.00;100637.47;4943171;28;54561;-68
2022/12/29 07:27:44;;;;;;;;;3.75;2.75;;;;;11.11;100.00;100634.81;4942641;28;50675;-68
2022/12/29 07:30:10;;;;;;;;;2.00;1.00;;;;;11.12;100.00;100631.34;4944355;28;50340;-68
2022/12/29 07:32:35;;;;;;;;;0.50;0.00;;;;;11.06;100.00;100628.59;4943294;28;49788;-68
2022/12/29 07:35:01;;;;;;;;;0.00;0.00;;;;;11.11;100.00;100640.97;4943619;28;50240;-68
2022/12/29 07:37:27;;;;;;;;;2.75;0.00;;;;;11.12;100.00;100649.72;4943703;28;50935;-68
2022/12/29 07:39:52;;;;;;;;;1.00;0.50;;;;;11.11;100.00;100645.34;4946705;28;50251;-69
2022/12/29 07:42:17;;;;;;;;;0.75;0.75;;;;;10.73;100.00;100594.78;4942805;28;61828;-69
2022/12/29 07:44:42;;;;;;;;;3.00;1.25;;;;;11.17;100.00;100661.19;4943572;28;49784;-68
2022/12/29 07:47:08;;;;;;;;;1.00;1.00;;;;;11.14;100.00;100663.75;4948922;28;64183;-68
2022/12/29 07:49:33;;;;;;;;;1.00;1.00;;;;;10.94;100.00;100631.91;4942307;28;64769;-69
2022/12/29 07:51:58;;;;;;;;;0.75;0.75;;;;;11.04;100.00;100657.47;4933949;28;50048;-68
2022/12/29 07:54:24;;;;;;;;;0.50;0.50;;;;;11.01;100.00;100653.91;4946196;28;49810;-68
2022/12/29 07:56:49;;;;;;;;;1.50;1.50;;;;;11.08;100.00;100680.28;4961022;28;51305;-68
2022/12/29 07:59:15;;;;;;;;;1.00;1.00;;;;;11.02;100.00;100671.44;4945672;28;49826;-68
2022/12/29 08:01:40;;;;;;;;;4.25;1.00;;;;;11.13;100.00;100701.41;4951278;28;49891;-68
2022/12/29 08:04:05;;;;;;;;;0.00;0.00;;;;;11.15;100.00;100703.19;4944425;28;60218;-68
2022/12/29 08:06:31;;;;;;;;;0.25;0.00;;;;;11.15;100.00;100699.69;4945339;28;50615;-68
2022/12/29 08:08:57;;;;;;;;;1.25;1.00;;;;;11.14;100.00;100705.81;4944313;28;49885;-69
2022/12/29 08:11:22;;;;;;;;;2.75;1.25;;;;;11.15;100.00;100704.94;4944907;28;49871;-68
2022/12/29 08:13:48;;;;;;;;;0.50;0.50;;;;;10.91;100.00;100663.38;4945799;28;49753;-69
2022/12/29 08:16:13;;;;;;;;;2.00;1.50;;;;;11.15;100.00;100720.72;4946831;28;68213;-68
2022/12/29 08:18:38;;;;;;;;;2.00;0.25;;;;;11.15;100.00;100718.97;4944561;28;49928;-68
2022/12/29 08:21:04;;;;;;;;;0.25;0.25;;;;;11.17;100.00;100721.63;4928126;28;55738;-69
2022/12/29 08:23:30;;;;;;;;;0.00;0.00;;;;;11.19;100.00;100717.25;4943992;28;49979;-68
2022/12/29 08:26:00;;;;;;;;;1.25;1.00;;;;;11.23;100.00;100723.47;4945931;28;50253;-68
2022/12/29 08:28:25;;;;;;;;;1.00;0.25;;;;;11.24;100.00;100725.25;4944981;28;50035;-68
2022/12/29 08:30:51;;;;;;;;;0.00;0.00;;;;;11.14;100.00;100711.06;4944639;28;50009;-69
2022/12/29 08:33:16;;;;;;;;;0.75;0.75;;;;;11.21;100.00;100736.59;4944215;28;49916;-68
2022/12/29 08:35:41;;;;;;;;;1.00;1.00;;;;;11.18;100.00;100726.88;4944784;28;50778;-69
2022/12/29 08:38:07;;;;;;;;;1.75;1.25;;;;;11.22;100.00;100741.00;4945530;28;55164;-68
2022/12/29 08:40:32;;;;;;;;;7.50;3.25;;;;;11.22;100.00;100740.09;4945187;28;49944;-68
2022/12/29 08:42:57;;;;;;;;;5.25;2.25;;;;;11.13;100.00;100733.81;4945496;28;50033;-68
2022/12/29 08:45:23;;;;;;;;;2.25;1.75;;;;;11.10;100.00;100725.91;4944678;28;67199;-68
2022/12/29 08:47:48;;;;;;;;;1.50;1.50;;;;;11.23;100.00;100753.25;4943778;28;56144;-68
2022/12/29 08:50:13;;;;;;;;;2.25;2.25;;;;;11.01;100.00;100711.72;4933715;28;50093;-69
2022/12/29 08:52:38;;;;;;;;;4.25;3.00;;;;;11.26;100.00;100768.19;4944996;28;49930;-69
2022/12/29 08:55:04;;;;;;;;;1.75;1.00;;;;;11.26;100.00;100766.44;4944759;28;69656;-69
2022/12/29 08:57:29;;;;;;;;;2.00;1.25;;;;;11.28;100.00;100777.88;4958128;28;49938;-68
2022/12/29 08:59:55;;;;;;;;;2.00;1.75;;;;;11.12;100.00;100753.06;4947012;28;50048;-71
2022/12/29 09:02:20;;;;;;;;;3.25;1.75;;;;;11.35;100.00;100789.38;4954396;28;49811;-70
2022/12/29 09:04:45;;;;;;;;;2.00;2.00;;;;;11.32;100.00;100776.19;4947549;28;67014;-71
2022/12/29 09:07:11;;;;;;;;;4.00;1.75;;;;;11.42;100.00;100786.91;4951481;28;50184;-70
2022/12/29 09:09:36;;;;;;;;;2.50;2.50;;;;;11.42;100.00;100781.66;4953070;28;49811;-70
2022/12/29 09:12:01;;;;;;;;;4.50;2.50;;;;;11.10;100.00;100731.16;4948152;28;53109;-70
2022/12/29 09:14:27;;;;;;;;;2.00;1.75;;;;;11.37;100.00;100788.53;4944389;28;50822;-76
2022/12/29 09:19:37;;;;;;;;;6.75;2.50;;;;;11.46;100.00;100788.72;4937170;28;49947;-70
2022/12/29 09:22:03;;;;;;;;;4.25;4.00;;;;;11.46;100.00;100795.72;4935965;28;50066;-70
2022/12/29 09:24:28;;;;;;;;;6.25;6.25;;;;;11.50;100.00;100797.56;4949239;28;50347;-71
2022/12/29 09:26:53;;;;;;;;;7.00;3.25;;;;;11.45;100.00;100789.56;4944263;28;50053;-70
2022/12/29 09:29:19;;;;;;;;;8.25;5.25;;;;;11.54;100.00;100809.88;4945917;28;49838;-69
2022/12/29 09:31:44;;;;;;;;;1.50;1.00;;;;;11.03;100.00;100731.00;4947148;28;49892;-77
2022/12/29 09:34:10;;;;;;;;;1.75;1.00;;;;;11.47;100.00;100814.13;4944660;28;50648;-71
2022/12/29 09:36:35;;;;;;;;;2.25;1.00;;;;;11.51;100.00;100809.84;4944796;28;49692;-67
2022/12/29 09:39:00;;;;;;;;;3.25;1.50;;;;;11.45;100.00;100809.72;4945265;28;49643;-71
2022/12/29 09:41:38;;;;;;;;;3.25;2.75;;;;;11.40;100.00;100801.75;4945402;28;50306;-71
2022/12/29 09:44:25;;;;;;;;;3.25;2.75;;;;;11.49;100.00;100815.94;4943914;28;50767;-75
2022/12/29 09:46:53;;;;;;;;;5.25;2.25;;;;;11.52;100.00;100818.63;4943750;28;50204;-70
2022/12/29 09:49:45;;;;;;;;;4.50;2.25;;;;;11.48;100.00;100828.16;4939835;28;49939;-74
2022/12/29 09:52:18;;;;;;;;;2.50;1.00;;;;;11.35;100.00;100818.28;4934298;28;50192;-69
2022/12/29 09:54:58;;;;;;;;;3.50;2.00;;;;;11.52;100.00;100837.91;4942893;28;50014;-70
2022/12/29 09:57:47;;;;;;;;;5.75;3.50;;;;;11.59;100.00;100838.91;4948551;28;50263;-72
2022/12/29 10:00:18;;;;;;;;;4.25;3.00;;;;;11.59;100.00;100828.38;4943985;28;50307;-72
2022/12/29 10:02:48;;;;;;;;;5.00;4.00;;;;;11.57;100.00;100830.06;4942536;28;49777;-71
2022/12/29 10:05:56;;;;;;;;;3.50;1.00;;;;;11.54;100.00;100845.81;4946673;28;50182;-69
2022/12/29 10:08:43;;;;;;;;;2.75;2.00;;;;;11.57;100.00;100852.00;4882841;29;50131;-70
2022/12/29 10:11:14;;;;;;;;;3.50;3.00;;;;;11.59;100.00;100854.69;4940743;28;49868;-69
2022/12/29 10:13:49;;;;;;;;;1.00;1.00;;;;;11.60;100.00;100849.44;4949644;28;49783;-69
2022/12/29 10:16:19;;;;;;;;;2.00;1.00;;;;;11.46;100.00;100827.25;4951704;28;50935;-70
2022/12/29 10:18:53;;;;;;;;;8.25;2.50;;;;;11.62;100.00;100855.59;4951338;28;49767;-69
2022/12/29 10:21:39;;;;;;;;;3.25;1.50;;;;;11.61;100.00;100864.34;4950493;28;49575;-69
2022/12/29 10:24:10;;;;;;;;;1.75;1.75;;;;;11.62;100.00;100854.72;4951595;28;49789;-71
2022/12/29 10:26:40;;;;;;;;;4.50;1.00;;;;;11.60;100.00;100861.69;4944067;28;50931;-70
2022/12/29 10:29:17;;;;;;;;;4.50;1.50;;;;;11.57;100.00;100846.72;4947896;28;49949;-70
2022/12/29 10:32:06;;;;;;;;;3.25;2.00;;;;;11.22;100.00;100796.16;4952743;28;49893;-70
2022/12/29 10:34:39;;;;;;;;;6.75;4.25;;;;;11.24;100.00;100788.31;4949731;28;49673;-72
2022/12/29 10:37:43;;;;;;;;;6.00;2.50;;;;;11.59;100.00;100854.69;4948782;28;49987;-75
2022/12/29 10:40:22;;;;;;;;;5.00;3.50;;;;;11.04;100.00;100751.16;4914962;28;50188;-73
2022/12/29 10:42:53;;;;;;;;;11.00;8.00;;;;;11.44;100.00;100839.50;4951286;28;49798;-76
2022/12/29 10:45:23;;;;;;;;;2.50;1.00;;;;;11.46;100.00;100829.88;4950699;28;49143;-73
2022/12/29 10:47:59;;;;;;;;;1.00;1.00;;;;;11.37;100.00;100822.72;4950822;28;49815;-74
2022/12/29 10:50:26;;;;;;;;;2.00;1.00;;;;;11.61;100.00;100845.94;4951194;28;50021;-75
2022/12/29 10:52:54;;;;;;;;;3.00;1.50;;;;;11.35;100.00;100790.25;4951484;28;49736;-77
2022/12/29 10:55:27;;;;;;;;;2.00;1.00;;;;;11.71;100.00;100839.09;4951210;28;50196;-73
2022/12/29 10:57:57;;;;;;;;;4.75;2.00;;;;;11.69;100.00;100839.09;4950402;28;49737;-75
2022/12/29 11:00:22;;;;;;;;;6.00;6.00;;;;;11.83;100.00;100841.09;4951441;28;49899;-73
2022/12/29 11:03:09;;;;;;;;;3.25;1.50;;;;;11.83;100.00;100839.34;4940724;28;50025;-73
2022/12/29 11:05:48;;;;;;;;;1.75;1.50;;;;;11.83;100.00;100841.97;4948146;28;49848;-76
2022/12/29 11:08:23;;;;;;;;;3.00;1.25;;;;;11.64;100.00;100816.19;4949953;28;51379;-74
2022/12/29 11:11:02;;;;;;;;;2.25;2.25;;;;;11.76;100.00;100855.84;4944855;28;49837;-74
2022/12/29 11:13:49;;;;;;;;;3.50;2.00;;;;;11.83;100.00;100843.72;4946581;28;49886;-73
2022/12/29 11:16:27;;;;;;;;;3.50;1.00;;;;;11.75;100.00;100831.28;4951286;28;49941;-73
2022/12/29 11:18:52;;;;;;;;;5.50;3.00;;;;;11.84;100.00;100851.63;4950898;28;49876;-72
2022/12/29 11:21:39;;;;;;;;;2.00;2.00;;;;;11.79;100.00;100821.72;4951064;28;55613;-74
2022/12/29 11:24:22;;;;;;;;;2.50;2.50;;;;;11.46;100.00;100749.28;4946252;28;49948;-74
2022/12/29 11:26:57;;;;;;;;;3.50;3.00;;;;;11.89;100.00;100842.09;4949537;28;49778;-72
2022/12/29 11:29:37;;;;;;;;;3.00;1.25;;;;;12.01;100.00;100855.44;4950907;28;50355;-74
2022/12/29 11:32:19;;;;;;;;;3.50;3.00;;;;;12.07;100.00;100849.41;4950757;28;49774;-74
2022/12/29 11:34:45;;;;;;;;;3.50;3.25;;;;;11.66;100.00;100801.31;4953631;28;49782;-75
2022/12/29 11:37:14;;;;;;;;;5.75;4.00;;;;;12.12;100.00;100855.59;4951051;28;49863;-74
2022/12/29 11:39:49;;;;;;;;;8.25;2.75;;;;;11.85;100.00;100803.44;4950844;28;50713;-74
2022/12/29 11:42:17;;;;;;;;;6.50;5.00;;;;;12.17;100.00;100879.38;4950288;28;49560;-72
2022/12/29 11:44:47;;;;;;;;;7.75;3.00;;;;;11.79;100.00;100779.63;4950748;28;49690;-73
2022/12/29 11:47:32;;;;;;;;;3.75;1.75;;;;;11.29;100.00;100700.81;4950468;28;49926;-74
2022/12/29 11:50:01;;;;;;;;;3.50;3.50;;;;;12.19;100.00;100838.19;4950241;28;50397;-74
2022/12/29 11:52:32;;;;;;;;;4.50;4.00;;;;;11.28;100.00;100683.25;4950610;28;49749;-73
2022/12/29 11:55:00;;;;;;;;;2.00;1.00;;;;;11.58;100.00;100729.31;4950825;28;49884;-73
2022/12/29 11:57:27;;;;;;;;;5.25;2.25;;;;;11.78;100.00;100772.63;4950747;28;50251;-73
2022/12/29 11:59:55;;;;;;;;;4.00;2.25;;;;;11.96;100.00;100804.47;4950897;28;51260;-74
2022/12/29 12:02:28;;;;;;;;;3.75;2.50;;;;;12.24;100.00;100820.69;4965613;28;50115;-74
2022/12/29 12:05:05;;;;;;;;;3.75;3.50;;;;;10.94;100.00;100608.28;4956661;28;50095;-76
2022/12/29 12:07:38;;;;;;;;;2.00;2.00;;;;;12.17;100.00;100813.59;4949147;28;49858;-76
2022/12/29 12:10:07;;;;;;;;;3.00;2.75;;;;;12.19;100.00;100818.00;4950505;28;51652;-75
2022/12/29 12:12:32;;;;;;;;;6.50;2.75;;;;;12.01;100.00;100778.25;4952866;28;49777;-76
2022/12/29 12:14:59;;;;;;;;;4.00;3.00;;;;;11.39;100.00;100665.94;4953001;28;50200;-76
2022/12/29 12:17:51;;;;;;;;;2.00;1.00;;;;;12.25;100.00;100830.34;4953660;28;50113;-80
2022/12/29 12:20:21;;;;;;;;;3.25;3.25;;;;;11.37;100.00;100675.53;4948359;28;49975;-79
2022/12/29 12:23:26;;;;;;;;;1.25;1.00;;;;;11.14;100.00;100611.22;4953987;28;49915;-75
2022/12/29 12:26:01;;;;;;;;;6.00;1.50;;;;;12.14;100.00;100771.41;4948093;28;49785;-72
2022/12/29 12:28:40;;;;;;;;;2.00;1.25;;;;;12.10;100.00;100765.25;4953039;28;49944;-73
2022/12/29 12:31:16;;;;;;;;;2.75;2.50;;;;;11.88;100.00;100728.97;4948390;28;52220;-72
2022/12/29 12:33:46;;;;;;;;;9.25;5.50;;;;;12.48;100.00;100822.81;4952954;28;49980;-72
2022/12/29 12:36:27;;;;;;;;;7.50;4.50;;;;;12.51;100.00;100818.47;4953384;28;49991;-71
2022/12/29 12:39:24;;;;;;;;;3.00;2.25;;;;;12.46;100.00;100807.00;4952194;28;49929;-70
2022/12/29 12:42:02;;;;;;;;;1.25;1.00;;;;;12.59;100.00;100808.91;4952921;28;50000;-74
2022/12/29 12:45:00;;;;;;;;;5.00;2.75;;;;;12.41;100.00;100779.72;4953183;28;49934;-74
2022/12/29 12:48:01;;;;;;;;;3.00;1.00;;;;;12.61;100.00;100808.94;4953473;28;49741;-75
2022/12/29 12:50:39;;;;;;;;;6.75;2.75;;;;;12.57;100.00;100799.25;4952977;28;49704;-76
2022/12/29 12:53:30;;;;;;;;;5.50;3.75;;;;;12.40;100.00;100767.41;4953376;28;50460;-72
2022/12/29 12:56:26;;;;;;;;;4.00;1.75;;;;;12.66;100.00;100801.09;4952800;28;49883;-71
2022/12/29 12:58:55;;;;;;;;;4.00;2.75;;;;;12.70;100.00;100798.53;4953355;28;49729;-70
2022/12/29 13:01:32;;;;;;;;;5.50;5.50;;;;;12.79;100.00;100798.63;4953360;28;49941;-71
2022/12/29 13:04:22;;;;;;;;;6.25;4.25;;;;;12.91;100.00;100805.81;4952828;28;52412;-68
2022/12/29 13:07:17;;;;;;;;;3.50;0.50;;;;;12.98;100.00;100817.31;4952824;28;49814;-70
2022/12/29 13:10:33;;;;;;;;;3.00;3.00;;;;;13.05;100.00;100809.50;4953070;28;49943;-71
2022/12/29 13:13:29;;;;;;;;;3.50;1.00;;;;;13.17;100.00;100806.09;4935857;28;50186;-69
2022/12/29 13:16:17;;;;;;;;;2.25;1.00;;;;;13.22;100.00;100815.00;4952830;28;50667;-70
2022/12/29 13:19:02;;;;;;;;;3.00;2.00;;;;;13.21;100.00;100810.56;4952376;28;49775;-71
2022/12/29 13:22:04;;;;;;;;;1.75;1.75;;;;;13.25;100.00;100811.50;4946303;28;49911;-69
2022/12/29 13:24:58;;;;;;;;;3.75;0.25;;;;;13.24;100.00;100804.47;4951694;28;50025;-71
2022/12/29 13:27:51;;;;;;;;;1.75;1.75;;;;;13.32;100.00;100810.72;4948306;28;50479;-71
2022/12/29 13:30:32;;;;;;;;;1.50;1.25;;;;;13.33;100.00;100812.47;4929417;28;50112;-71
2022/12/29 13:33:12;;;;;;;;;2.50;1.50;;;;;13.33;100.00;100820.38;4953983;28;49774;-71
2022/12/29 13:35:56;;;;;;;;;0.50;0.50;;;;;13.14;100.00;100796.41;4952721;28;49691;-69
2022/12/29 13:38:21;;;;;;;;;3.00;2.75;;;;;13.27;100.00;100809.75;4967140;28;51596;-71
2022/12/29 13:40:53;;;;;;;;;1.75;1.75;;;;;13.28;100.00;100814.16;4951999;28;49619;-69
2022/12/29 13:43:21;;;;;;;;;3.00;1.25;;;;;13.33;100.00;100804.56;4952759;28;49765;-69
2022/12/29 13:45:55;;;;;;;;;2.00;0.00;;;;;13.28;100.00;100816.78;4952434;28;49706;-69
2022/12/29 13:48:28;;;;;;;;;2.00;1.00;;;;;13.07;100.00;100784.03;4952324;28;51409;-71
2022/12/29 13:50:59;;;;;;;;;4.00;3.75;;;;;13.14;100.00;100806.09;4954409;28;49857;-69
2022/12/29 13:53:42;;;;;;;;;2.50;2.00;;;;;13.09;100.00;100819.19;4952410;28;49814;-69
2022/12/29 13:56:20;;;;;;;;;2.75;1.50;;;;;13.06;100.00;100815.66;4950928;28;50152;-69
2022/12/29 13:59:07;;;;;;;;;1.00;1.00;;;;;13.00;100.00;100812.94;4952197;28;51520;-70
2022/12/29 14:01:46;;;;;;;;;2.00;2.00;;;;;12.99;100.00;100817.31;4952230;28;49709;-70
2022/12/29 14:04:23;;;;;;;;;0.75;0.75;;;;;12.98;100.00;100830.47;4951474;28;49948;-69
2022/12/29 14:07:00;;;;;;;;;4.00;1.50;;;;;12.86;100.00;100813.66;4952392;28;49782;-71
2022/12/29 14:09:31;;;;;;;;;2.25;2.25;;;;;12.87;100.00;100820.69;4951441;28;50554;-71
2022/12/29 14:11:57;;;;;;;;;1.25;0.50;;;;;12.86;100.00;100832.09;4951690;28;49788;-71
2022/12/29 14:14:25;;;;;;;;;3.00;2.00;;;;;12.79;100.00;100830.25;4952234;28;50039;-71
2022/12/29 14:16:52;;;;;;;;;1.50;1.50;;;;;12.82;100.00;100826.75;4951461;28;49861;-70
2022/12/29 14:19:26;;;;;;;;;3.50;1.00;;;;;12.77;100.00;100836.38;4949731;28;51753;-71
2022/12/29 14:22:04;;;;;;;;;1.75;1.75;;;;;12.71;100.00;100829.25;4952051;28;49790;-71
2022/12/29 14:24:32;;;;;;;;;3.75;2.00;;;;;12.69;100.00;100828.38;4952018;28;49609;-70
2022/12/29 14:26:57;;;;;;;;;2.75;2.50;;;;;12.33;100.00;100781.34;4951814;28;50060;-71
2022/12/29 14:29:23;;;;;;;;;1.25;1.25;;;;;12.57;100.00;100836.09;4951739;28;49907;-72
2022/12/29 14:31:48;;;;;;;;;3.00;1.00;;;;;12.56;100.00;100837.84;4951855;28;49684;-71
2022/12/29 14:34:13;;;;;;;;;6.50;3.00;;;;;12.51;100.00;100833.38;4951407;28;49796;-72
2022/12/29 14:36:40;;;;;;;;;3.75;3.25;;;;;12.49;100.00;100836.00;4951786;28;49831;-71
2022/12/29 14:39:44;;;;;;;;;3.00;1.50;;;;;12.37;100.00;100817.41;4951412;28;50494;-71
2022/12/29 14:42:10;;;;;;;;;4.50;2.25;;;;;12.45;100.00;100830.66;4891373;28;50091;-71
2022/12/29 14:44:48;;;;;;;;;1.00;1.00;;;;;12.42;100.00;100835.88;4892431;28;49831;-71
2022/12/29 14:47:36;;;;;;;;;4.50;1.75;;;;;12.40;100.00;100841.13;4919595;28;49848;-71
2022/12/29 14:50:14;;;;;;;;;3.00;2.00;;;;;12.27;100.00;100813.75;4951140;28;49812;-73
2022/12/29 14:52:50;;;;;;;;;3.25;2.00;;;;;12.23;100.00;100813.66;4951580;28;49801;-71
2022/12/29 14:55:15;;;;;;;;;2.00;2.00;;;;;12.34;100.00;100833.13;4951277;28;49876;-73
2022/12/29 14:57:42;;;;;;;;;1.75;1.50;;;;;12.30;100.00;100828.69;4951880;28;49681;-71
2022/12/29 15:00:20;;;;;;;;;4.25;3.00;;;;;12.32;100.00;100834.84;4951401;28;50602;-71
2022/12/29 15:02:49;;;;;;;;;3.50;1.75;;;;;12.11;100.00;100806.47;4950838;28;49144;-71
2022/12/29 15:05:40;;;;;;;;;2.25;1.50;;;;;12.07;100.00;100806.41;4951246;28;49892;-71
2022/12/29 15:08:07;;;;;;;;;4.50;3.75;;;;;12.15;100.00;100839.84;4951636;28;49694;-71
2022/12/29 15:10:56;;;;;;;;;7.75;4.00;;;;;12.20;100.00;100850.47;4950620;28;49857;-71
2022/12/29 15:13:25;;;;;;;;;1.50;1.50;;;;;12.06;100.00;100837.06;4950921;28;49847;-71
2022/12/29 15:15:52;;;;;;;;;2.50;1.00;;;;;11.91;100.00;100821.94;4951366;28;49856;-71
2022/12/29 15:18:30;;;;;;;;;1.25;1.25;;;;;12.11;100.00;100858.22;4951654;28;49595;-71
2022/12/29 15:21:05;;;;;;;;;2.00;2.00;;;;;12.10;100.00;100867.88;4951321;28;49986;-71
2022/12/29 15:23:33;;;;;;;;;3.50;2.50;;;;;12.08;100.00;100869.59;4951398;28;50204;-71
2022/12/29 15:26:02;;;;;;;;;5.00;3.00;;;;;12.07;100.00;100878.34;4950652;28;49746;-71
2022/12/29 15:28:43;;;;;;;;;3.50;1.25;;;;;11.81;100.00;100838.44;4951346;28;49925;-70
2022/12/29 15:31:14;;;;;;;;;3.00;2.25;;;;;11.97;100.00;100873.78;4950900;28;49740;-71
2022/12/29 15:33:41;;;;;;;;;2.25;1.25;;;;;11.94;100.00;100876.34;4950746;28;49740;-70
2022/12/29 15:36:19;;;;;;;;;2.50;1.25;;;;;11.83;100.00;100865.66;4950425;28;49684;-71
2022/12/29 15:38:45;;;;;;;;;2.00;1.75;;;;;11.82;100.00;100866.50;4951141;28;49708;-71
2022/12/29 15:41:27;;;;;;;;;2.00;2.00;;;;;11.80;100.00;100886.66;4950570;28;49840;-71
2022/12/29 15:44:20;;;;;;;;;7.25;3.75;;;;;11.78;100.00;100890.09;4952521;28;49985;-72
2022/12/29 15:46:46;;;;;;;;;0.50;0.50;;;;;11.69;100.00;100886.44;4954210;28;49829;-71
2022/12/29 15:49:14;;;;;;;;;2.75;0.25;;;;;11.69;100.00;100890.81;4955339;28;49958;-71
2022/12/29 15:51:40;;;;;;;;;2.50;0.00;;;;;11.30;100.00;100831.38;4954557;28;51071;-72
2022/12/29 15:54:12;;;;;;;;;1.50;1.00;;;;;11.38;100.00;100858.66;4953206;28;49760;-72
2022/12/29 15:56:37;;;;;;;;;2.50;2.00;;;;;11.51;100.00;100887.81;4951119;28;49945;-72
2022/12/29 15:59:02;;;;;;;;;2.00;2.00;;;;;11.03;100.00;100821.19;4953726;28;49790;-72
2022/12/29 16:01:36;;;;;;;;;1.75;0.00;;;;;11.44;100.00;100892.94;4952548;28;51469;-72
2022/12/29 16:04:08;;;;;;;;;2.00;1.50;;;;;11.43;100.00;100896.44;4952565;28;49897;-72
2022/12/29 16:06:36;;;;;;;;;1.00;1.00;;;;;11.39;100.00;100904.25;4953962;28;49713;-72
2022/12/29 16:09:03;;;;;;;;;5.00;3.00;;;;;11.33;100.00;100899.75;4954007;28;49661;-73
2022/12/29 16:11:36;;;;;;;;;13.25;9.75;;;;;11.12;100.00;100868.69;4953098;28;50329;-73
2022/12/29 16:14:09;;;;;;;;;9.00;5.00;;;;;11.27;100.00;100893.47;4953583;28;49796;-72
2022/12/29 16:16:42;;;;;;;;;0.25;0.25;;;;;11.20;100.00;100894.22;4953993;28;49777;-72
2022/12/29 16:19:33;;;;;;;;;1.25;1.25;;;;;11.18;100.00;100910.81;4953890;28;49954;-72
2022/12/29 16:22:01;;;;;;;;;2.25;1.25;;;;;11.15;100.00;100910.78;4952206;28;52628;-72
2022/12/29 16:24:31;;;;;;;;;1.00;1.00;;;;;11.09;100.00;100909.75;4953719;28;49849;-72
2022/12/29 16:27:09;;;;;;;;;0.00;0.00;;;;;11.07;100.00;100922.84;4953300;28;50055;-72
2022/12/29 16:29:35;;;;;;;;;2.00;2.00;;;;;10.94;100.00;100907.69;4953645;28;49829;-72
2022/12/29 16:32:02;;;;;;;;;1.75;1.75;;;;;10.92;100.00;100900.66;4953323;28;49847;-72
2022/12/29 16:34:36;;;;;;;;;2.50;2.00;;;;;11.02;100.00;100929.75;4953802;28;50275;-72
2022/12/29 16:37:04;;;;;;;;;2.75;2.00;;;;;11.00;100.00;100934.09;4953768;28;49808;-72
2022/12/29 16:39:39;;;;;;;;;3.00;2.00;;;;;10.80;100.00;100912.63;4953775;28;50019;-71
2022/12/29 16:42:42;;;;;;;;;3.00;2.25;;;;;10.82;100.00;100920.56;4952797;28;51091;-71
2022/12/29 16:45:20;;;;;;;;;8.50;4.25;;;;;10.88;100.00;100945.19;4912287;28;49955;-68
2022/12/29 16:48:06;;;;;;;;;7.25;3.00;;;;;10.82;100.00;100949.44;4943933;28;49649;-69
2022/12/29 16:50:33;;;;;;;;;5.75;4.00;;;;;10.66;100.00;100924.56;4941703;28;49924;-68
2022/12/29 16:52:59;;;;;;;;;9.75;8.00;;;;;10.72;100.00;100948.34;4952510;28;49739;-70
2022/12/29 16:55:24;;;;;;;;;15.50;10.75;;;;;10.77;100.00;100957.22;4951943;28;49778;-69
2022/12/29 16:57:55;;;;;;;;;13.75;11.00;;;;;10.69;100.00;100957.88;4953571;28;49775;-71
2022/12/29 17:00:26;;;;;;;;;21.50;12.50;;;;;10.66;100.00;100968.31;4953292;28;49937;-71
2022/12/29 17:02:58;;;;;;;;;10.00;6.75;;;;;10.63;100.00;100966.53;4952987;28;49794;-71
2022/12/29 17:05:24;;;;;;;;;10.75;9.75;;;;;10.60;100.00;100962.06;4952731;28;49940;-76
2022/12/29 17:07:51;;;;;;;;;11.00;9.00;;;;;10.63;100.00;100991.88;4952853;28;49990;-75
2022/12/29 17:10:16;;;;;;;;;3.25;3.25;;;;;10.48;100.00;100969.66;4953009;28;49764;-71
2022/12/29 17:12:44;;;;;;;;;3.75;3.00;;;;;10.60;100.00;100998.81;4952659;28;49702;-69
2022/12/29 17:15:26;;;;;;;;;8.75;7.00;;;;;10.28;100.00;100957.78;4953146;28;50502;-73
2022/12/29 17:17:54;;;;;;;;;7.75;4.25;;;;;10.56;100.00;101003.97;4952909;28;49961;-71
2022/12/29 17:20:23;;;;;;;;;5.50;4.00;;;;;10.48;100.00;101009.00;4953101;28;50086;-79
2022/12/29 17:22:53;;;;;;;;;10.50;5.00;;;;;10.51;100.00;101014.34;4951284;28;51171;-70
2022/12/29 17:25:26;;;;;;;;;9.25;6.00;;;;;10.49;100.00;101009.91;4952367;28;49773;-78
2022/12/29 17:28:16;;;;;;;;;5.00;3.50;;;;;10.46;100.00;101015.97;4952895;28;49902;-71
2022/12/29 17:30:41;;;;;;;;;6.00;4.00;;;;;10.41;100.00;101011.44;4951718;28;49895;-76
2022/12/29 17:33:12;;;;;;;;;9.50;5.25;;;;;10.18;100.00;100981.97;4952417;28;50630;-76
2022/12/29 17:35:38;;;;;;;;;4.00;3.25;;;;;9.98;100.00;100949.97;4953737;28;49840;-74
2022/12/29 17:38:18;;;;;;;;;7.25;5.25;;;;;10.37;100.00;101026.22;4955377;28;49944;-71
2022/12/29 17:40:43;;;;;;;;;6.00;6.00;;;;;10.16;100.00;100996.78;4954013;28;50576;-72
2022/12/29 17:43:12;;;;;;;;;9.00;7.00;;;;;10.01;100.00;100978.91;4952223;28;50459;-74
2022/12/29 17:45:39;;;;;;;;;10.25;7.25;;;;;9.99;100.00;100983.22;4955512;28;49768;-71
2022/12/29 17:48:11;;;;;;;;;9.50;8.50;;;;;10.18;100.00;101021.31;4952495;28;50616;-74
2022/12/29 17:50:37;;;;;;;;;2.75;2.75;;;;;10.14;100.00;101012.50;4952746;28;49767;-70
2022/12/29 17:53:05;;;;;;;;;3.75;2.75;;;;;10.23;100.00;101028.50;4952453;28;49936;-72
2022/12/29 17:55:31;;;;;;;;;8.00;5.75;;;;;10.05;100.00;100999.13;4952015;28;49825;-70
2022/12/29 17:57:57;;;;;;;;;8.75;5.75;;;;;10.02;100.00;101006.91;4952441;28;49745;-67
2022/12/29 18:00:29;;;;;;;;;6.00;5.25;;;;;10.19;100.00;101031.84;4951719;28;49799;-67
2022/12/29 18:02:55;;;;;;;;;5.75;4.00;;;;;10.14;100.00;101022.09;4951765;28;49993;-68
2022/12/29 18:05:27;;;;;;;;;2.00;2.00;;;;;10.15;100.00;101029.13;4952125;28;49890;-68
2022/12/29 18:07:55;;;;;;;;;6.25;4.75;;;;;9.67;100.00;100961.38;4950878;28;49818;-68
2022/12/29 18:10:22;;;;;;;;;7.00;5.00;;;;;10.11;100.00;101045.59;4950460;28;49691;-69
2022/12/29 18:12:50;;;;;;;;;12.50;7.25;;;;;9.68;100.00;100971.03;4951829;28;49744;-67
2022/12/29 18:15:27;;;;;;;;;7.75;7.00;;;;;9.77;100.00;100992.25;4951222;28;49616;-69
2022/12/29 18:18:11;;;;;;;;;8.75;7.50;;;;;10.01;100.00;101049.72;4951930;28;49965;-68
2022/12/29 18:20:37;;;;;;;;;5.50;4.50;;;;;9.02;100.00;100881.81;4952095;28;50010;-68
2022/12/29 18:23:03;;;;;;;;;9.25;8.00;;;;;10.04;100.00;101065.56;4951872;28;51157;-73
2022/12/29 18:25:52;;;;;;;;;7.00;3.75;;;;;10.01;100.00;101060.19;4952041;28;49926;-69